sensor_id;sensor_type;location;lat;lon;timestamp;pressure;altitude;pressure_sealevel;temperature;humidity
10366;BME280;5229;41.820;23.490;2023-02-04T00:00:05;89691.34;;;3.39;51.55
10366;BME280;5229;41.820;23.490;2023-02-04T00:02:32;89692.22;;;3.30;51.53
10366;BME280;5229;41.820;23.490;2023-02-04T00:04:59;89692.50;;;3.23;52.35
10366;BME280;5229;41.820;23.490;2023-02-04T00:07:26;89686.16;;;3.16;52.98
10366;BME280;5229;41.820;23.490;2023-02-04T00:09:53;89691.03;;;3.12;53.50
10366;BME280;5229;41.820;23.490;2023-02-04T00:12:21;89691.34;;;3.05;54.14
10366;BME280;5229;41.820;23.490;2023-02-04T00:14:48;89699.81;;;3.01;54.60
10366;BME280;5229;41.820;23.490;2023-02-04T00:17:15;89688.84;;;2.95;54.82
10366;BME280;5229;41.820;23.490;2023-02-04T00:19:42;89677.34;;;2.93;54.74
10366;BME280;5229;41.820;23.490;2023-02-04T00:22:09;89687.84;;;2.91;54.76
10366;BME280;5229;41.820;23.490;2023-02-04T00:24:36;89686.06;;;2.92;54.93
10366;BME280;5229;41.820;23.490;2023-02-04T00:27:04;89680.44;;;2.90;55.48
10366;BME280;5229;41.820;23.490;2023-02-04T00:29:32;89668.63;;;2.94;55.95
10366;BME280;5229;41.820;23.490;2023-02-04T00:31:59;89668.16;;;2.92;56.38
10366;BME280;5229;41.820;23.490;2023-02-04T00:34:26;89667.34;;;2.96;56.40
10366;BME280;5229;41.820;23.490;2023-02-04T00:36:53;89658.84;;;3.01;56.21
10366;BME280;5229;41.820;23.490;2023-02-04T00:39:20;89655.72;;;3.09;56.32
10366;BME280;5229;41.820;23.490;2023-02-04T00:41:47;89649.59;;;3.10;55.75
10366;BME280;5229;41.820;23.490;2023-02-04T00:44:14;89649.53;;;3.15;56.19
10366;BME280;5229;41.820;23.490;2023-02-04T00:46:42;89642.38;;;3.17;55.97
10366;BME280;5229;41.820;23.490;2023-02-04T00:49:09;89630.03;;;3.19;56.15
10366;BME280;5229;41.820;23.490;2023-02-04T00:51:37;89631.03;;;3.23;56.92
10366;BME280;5229;41.820;23.490;2023-02-04T00:54:04;89636.66;;;3.25;56.42
10366;BME280;5229;41.820;23.490;2023-02-04T00:56:31;89626.41;;;3.25;56.95
10366;BME280;5229;41.820;23.490;2023-02-04T00:58:58;89635.06;;;3.29;56.74
10366;BME280;5229;41.820;23.490;2023-02-04T01:01:25;89634.31;;;3.29;56.71
10366;BME280;5229;41.820;23.490;2023-02-04T01:03:53;89624.84;;;3.29;57.59
10366;BME280;5229;41.820;23.490;2023-02-04T01:06:20;89619.19;;;3.32;57.00
10366;BME280;5229;41.820;23.490;2023-02-04T01:08:46;89614.06;;;3.32;57.61
10366;BME280;5229;41.820;23.490;2023-02-04T01:11:13;89617.09;;;3.34;57.17
10366;BME280;5229;41.820;23.490;2023-02-04T01:13:40;89609.91;;;3.36;57.34
10366;BME280;5229;41.820;23.490;2023-02-04T01:16:07;89605.28;;;3.38;57.23
10366;BME280;5229;41.820;23.490;2023-02-04T01:18:34;89599.59;;;3.41;57.76
10366;BME280;5229;41.820;23.490;2023-02-04T01:21:02;89595.75;;;3.44;57.53
10366;BME280;5229;41.820;23.490;2023-02-04T01:23:29;89592.94;;;3.45;57.34
10366;BME280;5229;41.820;23.490;2023-02-04T01:25:56;89584.94;;;3.47;57.66
10366;BME280;5229;41.820;23.490;2023-02-04T01:28:23;89585.25;;;3.45;57.51
10366;BME280;5229;41.820;23.490;2023-02-04T01:30:49;89587.81;;;3.45;56.99
10366;BME280;5229;41.820;23.490;2023-02-04T01:33:16;89585.72;;;3.47;57.74
10366;BME280;5229;41.820;23.490;2023-02-04T01:35:43;89587.25;;;3.48;57.94
10366;BME280;5229;41.820;23.490;2023-02-04T01:38:11;89581.56;;;3.51;57.56
10366;BME280;5229;41.820;23.490;2023-02-04T01:40:38;89579.53;;;3.53;58.01
10366;BME280;5229;41.820;23.490;2023-02-04T01:43:05;89573.34;;;3.54;58.02
10366;BME280;5229;41.820;23.490;2023-02-04T01:45:32;89572.81;;;3.57;57.59
10366;BME280;5229;41.820;23.490;2023-02-04T01:48:00;89569.72;;;3.60;57.02
10366;BME280;5229;41.820;23.490;2023-02-04T01:50:28;89574.28;;;3.63;57.70
10366;BME280;5229;41.820;23.490;2023-02-04T01:52:55;89572.75;;;3.62;57.89
10366;BME280;5229;41.820;23.490;2023-02-04T01:55:28;89575.81;;;3.64;57.91
10366;BME280;5229;41.820;23.490;2023-02-04T01:57:55;89556.56;;;3.67;57.56
10366;BME280;5229;41.820;23.490;2023-02-04T02:00:25;89561.91;;;3.70;57.32
10366;BME280;5229;41.820;23.490;2023-02-04T02:02:53;89557.25;;;3.72;57.60
10366;BME280;5229;41.820;23.490;2023-02-04T02:05:22;89547.00;;;3.72;58.01
10366;BME280;5229;41.820;23.490;2023-02-04T02:07:51;89550.34;;;3.73;58.05
10366;BME280;5229;41.820;23.490;2023-02-04T02:10:20;89555.75;;;3.71;57.35
10366;BME280;5229;41.820;23.490;2023-02-04T02:12:48;89548.81;;;3.72;58.14
10366;BME280;5229;41.820;23.490;2023-02-04T02:15:15;89547.50;;;3.74;57.72
10366;BME280;5229;41.820;23.490;2023-02-04T02:17:43;89545.97;;;3.73;57.84
10366;BME280;5229;41.820;23.490;2023-02-04T02:20:13;89540.56;;;3.75;57.76
10366;BME280;5229;41.820;23.490;2023-02-04T02:22:47;89536.22;;;3.75;57.60
10366;BME280;5229;41.820;23.490;2023-02-04T02:25:18;89534.16;;;3.77;57.57
10366;BME280;5229;41.820;23.490;2023-02-04T02:27:45;89527.47;;;3.76;58.35
10366;BME280;5229;41.820;23.490;2023-02-04T02:30:13;89514.38;;;3.78;57.58
10366;BME280;5229;41.820;23.490;2023-02-04T02:32:43;89505.38;;;3.80;57.94
10366;BME280;5229;41.820;23.490;2023-02-04T02:35:10;89513.06;;;3.80;57.73
10366;BME280;5229;41.820;23.490;2023-02-04T02:37:37;89514.59;;;3.81;57.42
10366;BME280;5229;41.820;23.490;2023-02-04T02:40:05;89515.09;;;3.83;58.01
10366;BME280;5229;41.820;23.490;2023-02-04T02:42:34;89503.53;;;3.86;58.11
10366;BME280;5229;41.820;23.490;2023-02-04T02:45:02;89500.97;;;3.86;58.26
10366;BME280;5229;41.820;23.490;2023-02-04T02:47:32;89500.75;;;3.82;57.57
10366;BME280;5229;41.820;23.490;2023-02-04T02:49:59;89496.16;;;3.79;57.52
10366;BME280;5229;41.820;23.490;2023-02-04T02:52:26;89504.13;;;3.78;58.10
10366;BME280;5229;41.820;23.490;2023-02-04T02:54:53;89497.47;;;3.77;58.38
10366;BME280;5229;41.820;23.490;2023-02-04T02:57:22;89478.75;;;3.76;58.00
10366;BME280;5229;41.820;23.490;2023-02-04T02:59:50;89498.81;;;3.74;58.73
10366;BME280;5229;41.820;23.490;2023-02-04T03:02:19;89492.44;;;3.72;58.33
10366;BME280;5229;41.820;23.490;2023-02-04T03:04:50;89488.13;;;3.67;57.91
10366;BME280;5229;41.820;23.490;2023-02-04T03:07:19;89484.31;;;3.65;58.58
10366;BME280;5229;41.820;23.490;2023-02-04T03:09:47;89484.59;;;3.63;58.51
10366;BME280;5229;41.820;23.490;2023-02-04T03:12:17;89496.13;;;3.61;58.36
10366;BME280;5229;41.820;23.490;2023-02-04T03:14:44;89490.53;;;3.59;58.20
10366;BME280;5229;41.820;23.490;2023-02-04T03:17:12;89478.06;;;3.52;58.81
10366;BME280;5229;41.820;23.490;2023-02-04T03:19:39;89476.84;;;3.45;59.01
10366;BME280;5229;41.820;23.490;2023-02-04T03:22:06;89470.06;;;3.35;59.25
10366;BME280;5229;41.820;23.490;2023-02-04T03:24:34;89463.53;;;3.24;59.10
10366;BME280;5229;41.820;23.490;2023-02-04T03:27:01;89457.41;;;3.20;59.78
10366;BME280;5229;41.820;23.490;2023-02-04T03:29:28;89439.78;;;3.19;59.64
10366;BME280;5229;41.820;23.490;2023-02-04T03:31:55;89419.59;;;3.12;59.16
10366;BME280;5229;41.820;23.490;2023-02-04T03:34:25;89420.91;;;3.09;59.92
10366;BME280;5229;41.820;23.490;2023-02-04T03:36:52;89417.56;;;3.09;59.03
10366;BME280;5229;41.820;23.490;2023-02-04T03:39:19;89420.09;;;3.14;59.02
10366;BME280;5229;41.820;23.490;2023-02-04T03:41:46;89403.63;;;3.20;59.14
10366;BME280;5229;41.820;23.490;2023-02-04T03:44:12;89416.16;;;3.22;58.88
10366;BME280;5229;41.820;23.490;2023-02-04T03:46:39;89422.81;;;3.23;58.97
10366;BME280;5229;41.820;23.490;2023-02-04T03:49:06;89399.78;;;3.23;58.40
10366;BME280;5229;41.820;23.490;2023-02-04T03:51:34;89399.25;;;3.21;58.59
10366;BME280;5229;41.820;23.490;2023-02-04T03:54:01;89406.75;;;3.17;59.19
10366;BME280;5229;41.820;23.490;2023-02-04T03:56:28;89413.16;;;3.14;58.74
10366;BME280;5229;41.820;23.490;2023-02-04T03:58:55;89406.31;;;3.10;58.87
10366;BME280;5229;41.820;23.490;2023-02-04T04:01:21;89412.19;;;3.10;58.52
10366;BME280;5229;41.820;23.490;2023-02-04T04:03:48;89409.34;;;3.12;59.11
10366;BME280;5229;41.820;23.490;2023-02-04T04:06:15;89398.38;;;3.12;58.47
10366;BME280;5229;41.820;23.490;2023-02-04T04:08:43;89402.16;;;3.14;58.64
10366;BME280;5229;41.820;23.490;2023-02-04T04:11:10;89403.16;;;3.18;58.24
10366;BME280;5229;41.820;23.490;2023-02-04T04:13:37;89404.66;;;3.19;58.43
10366;BME280;5229;41.820;23.490;2023-02-04T04:16:04;89408.25;;;3.18;58.72
10366;BME280;5229;41.820;23.490;2023-02-04T04:18:31;89411.03;;;3.22;58.12
10366;BME280;5229;41.820;23.490;2023-02-04T04:20:58;89423.03;;;3.26;58.79
10366;BME280;5229;41.820;23.490;2023-02-04T04:23:25;89407.38;;;3.28;58.57
10366;BME280;5229;41.820;23.490;2023-02-04T04:25:53;89427.88;;;3.28;57.97
10366;BME280;5229;41.820;23.490;2023-02-04T04:28:20;89416.66;;;3.24;58.05
10366;BME280;5229;41.820;23.490;2023-02-04T04:30:47;89398.44;;;3.25;58.66
10366;BME280;5229;41.820;23.490;2023-02-04T04:33:13;89402.53;;;3.26;58.09
10366;BME280;5229;41.820;23.490;2023-02-04T04:35:40;89394.09;;;3.26;57.77
10366;BME280;5229;41.820;23.490;2023-02-04T04:38:07;89406.06;;;3.30;58.40
10366;BME280;5229;41.820;23.490;2023-02-04T04:40:34;89388.81;;;3.36;58.05
10366;BME280;5229;41.820;23.490;2023-02-04T04:43:02;89386.50;;;3.39;57.51
10366;BME280;5229;41.820;23.490;2023-02-04T04:45:29;89383.03;;;3.49;57.93
10366;BME280;5229;41.820;23.490;2023-02-04T04:47:55;89383.09;;;3.62;57.27
10366;BME280;5229;41.820;23.490;2023-02-04T04:50:22;89382.41;;;3.75;57.11
10366;BME280;5229;41.820;23.490;2023-02-04T04:52:49;89387.84;;;3.87;56.74
10366;BME280;5229;41.820;23.490;2023-02-04T04:55:16;89369.31;;;3.95;57.07
10366;BME280;5229;41.820;23.490;2023-02-04T04:57:43;89372.81;;;3.99;56.85
10366;BME280;5229;41.820;23.490;2023-02-04T05:00:15;89380.97;;;4.01;56.44
10366;BME280;5229;41.820;23.490;2023-02-04T05:02:42;89386.88;;;4.02;57.01
10366;BME280;5229;41.820;23.490;2023-02-04T05:05:09;89385.66;;;3.99;56.64
10366;BME280;5229;41.820;23.490;2023-02-04T05:07:36;89373.88;;;3.98;56.79
10366;BME280;5229;41.820;23.490;2023-02-04T05:10:03;89377.00;;;3.95;56.60
10366;BME280;5229;41.820;23.490;2023-02-04T05:12:30;89372.59;;;3.96;56.74
10366;BME280;5229;41.820;23.490;2023-02-04T05:14:57;89383.53;;;4.01;56.66
10366;BME280;5229;41.820;23.490;2023-02-04T05:17:26;89380.53;;;3.99;56.74
10366;BME280;5229;41.820;23.490;2023-02-04T05:19:52;89386.09;;;4.01;57.32
10366;BME280;5229;41.820;23.490;2023-02-04T05:22:19;89386.09;;;4.01;56.37
10366;BME280;5229;41.820;23.490;2023-02-04T05:24:46;89389.16;;;4.03;56.35
10366;BME280;5229;41.820;23.490;2023-02-04T05:27:13;89386.31;;;4.05;57.21
10366;BME280;5229;41.820;23.490;2023-02-04T05:29:39;89387.84;;;4.06;56.78
10366;BME280;5229;41.820;23.490;2023-02-04T05:32:06;89377.59;;;4.06;56.91
10366;BME280;5229;41.820;23.490;2023-02-04T05:34:34;89371.72;;;4.05;56.74
10366;BME280;5229;41.820;23.490;2023-02-04T05:37:01;89384.31;;;4.02;56.67
10366;BME280;5229;41.820;23.490;2023-02-04T05:39:28;89378.69;;;4.00;57.04
10366;BME280;5229;41.820;23.490;2023-02-04T05:41:55;89389.16;;;4.03;56.95
10366;BME280;5229;41.820;23.490;2023-02-04T05:44:21;89393.25;;;4.04;57.22
10366;BME280;5229;41.820;23.490;2023-02-04T05:46:48;89385.00;;;4.07;57.15
10366;BME280;5229;41.820;23.490;2023-02-04T05:49:15;89376.25;;;4.08;56.96
10366;BME280;5229;41.820;23.490;2023-02-04T05:51:43;89389.56;;;4.10;57.04
10366;BME280;5229;41.820;23.490;2023-02-04T05:54:10;89390.53;;;4.14;57.11
10366;BME280;5229;41.820;23.490;2023-02-04T05:56:43;89405.38;;;4.17;57.11
10366;BME280;5229;41.820;23.490;2023-02-04T05:59:10;89408.91;;;4.21;57.30
10366;BME280;5229;41.820;23.490;2023-02-04T06:01:37;89407.28;;;4.25;57.02
10366;BME280;5229;41.820;23.490;2023-02-04T06:04:04;89416.72;;;4.30;57.12
10366;BME280;5229;41.820;23.490;2023-02-04T06:06:30;89423.59;;;4.34;56.99
10366;BME280;5229;41.820;23.490;2023-02-04T06:08:59;89415.31;;;4.37;57.53
10366;BME280;5229;41.820;23.490;2023-02-04T06:11:26;89415.50;;;4.41;57.36
10366;BME280;5229;41.820;23.490;2023-02-04T06:13:52;89420.84;;;4.44;56.98
10366;BME280;5229;41.820;23.490;2023-02-04T06:16:19;89420.09;;;4.44;57.45
10366;BME280;5229;41.820;23.490;2023-02-04T06:18:46;89420.84;;;4.44;57.27
10366;BME280;5229;41.820;23.490;2023-02-04T06:21:13;89412.66;;;4.42;57.46
10366;BME280;5229;41.820;23.490;2023-02-04T06:23:39;89412.00;;;4.37;57.97
10366;BME280;5229;41.820;23.490;2023-02-04T06:26:07;89400.44;;;4.21;58.65
10366;BME280;5229;41.820;23.490;2023-02-04T06:28:34;89399.84;;;4.10;58.88
10366;BME280;5229;41.820;23.490;2023-02-04T06:31:01;89402.97;;;4.07;59.60
10366;BME280;5229;41.820;23.490;2023-02-04T06:33:28;89404.19;;;4.10;59.74
10366;BME280;5229;41.820;23.490;2023-02-04T06:35:55;89396.44;;;4.15;59.88
10366;BME280;5229;41.820;23.490;2023-02-04T06:38:22;89408.13;;;4.21;59.60
10366;BME280;5229;41.820;23.490;2023-02-04T06:40:49;89405.97;;;4.28;59.69
10366;BME280;5229;41.820;23.490;2023-02-04T06:43:19;89407.41;;;4.34;59.32
10366;BME280;5229;41.820;23.490;2023-02-04T06:45:46;89403.72;;;4.40;59.58
10366;BME280;5229;41.820;23.490;2023-02-04T06:48:15;89409.25;;;4.47;59.23
10366;BME280;5229;41.820;23.490;2023-02-04T06:50:42;89414.78;;;4.54;59.14
10366;BME280;5229;41.820;23.490;2023-02-04T06:53:08;89417.53;;;4.57;59.33
10366;BME280;5229;41.820;23.490;2023-02-04T06:55:35;89426.19;;;4.61;59.46
10366;BME280;5229;41.820;23.490;2023-02-04T06:58:02;89419.56;;;4.60;59.36
10366;BME280;5229;41.820;23.490;2023-02-04T07:00:30;89422.63;;;4.62;59.46
10366;BME280;5229;41.820;23.490;2023-02-04T07:02:57;89431.34;;;4.61;59.50
10366;BME280;5229;41.820;23.490;2023-02-04T07:05:24;89435.91;;;4.64;59.48
10366;BME280;5229;41.820;23.490;2023-02-04T07:07:51;89444.09;;;4.66;59.19
10366;BME280;5229;41.820;23.490;2023-02-04T07:10:18;89431.63;;;4.60;59.79
10366;BME280;5229;41.820;23.490;2023-02-04T07:12:45;89443.69;;;4.46;60.33
10366;BME280;5229;41.820;23.490;2023-02-04T07:15:12;89430.22;;;4.35;60.42
10366;BME280;5229;41.820;23.490;2023-02-04T07:17:41;89425.47;;;4.29;60.77
10366;BME280;5229;41.820;23.490;2023-02-04T07:20:09;89431.63;;;4.28;60.77
10366;BME280;5229;41.820;23.490;2023-02-04T07:22:36;89425.47;;;4.29;60.87
10366;BME280;5229;41.820;23.490;2023-02-04T07:25:03;89418.72;;;4.33;60.85
10366;BME280;5229;41.820;23.490;2023-02-04T07:27:30;89427.66;;;4.35;61.25
10366;BME280;5229;41.820;23.490;2023-02-04T07:29:57;89419.69;;;4.37;61.32
10366;BME280;5229;41.820;23.490;2023-02-04T07:32:23;89411.91;;;4.42;61.19
10366;BME280;5229;41.820;23.490;2023-02-04T07:34:53;89418.03;;;4.46;61.01
10366;BME280;5229;41.820;23.490;2023-02-04T07:37:20;89415.72;;;4.44;61.31
10366;BME280;5229;41.820;23.490;2023-02-04T07:39:48;89422.38;;;4.45;61.49
10366;BME280;5229;41.820;23.490;2023-02-04T07:42:14;89413.34;;;4.48;61.21
10366;BME280;5229;41.820;23.490;2023-02-04T07:44:41;89411.38;;;4.58;61.13
10366;BME280;5229;41.820;23.490;2023-02-04T07:47:08;89411.41;;;4.72;60.25
10366;BME280;5229;41.820;23.490;2023-02-04T07:49:36;89410.19;;;4.83;60.11
10366;BME280;5229;41.820;23.490;2023-02-04T07:52:04;89416.38;;;4.95;59.46
10366;BME280;5229;41.820;23.490;2023-02-04T07:54:31;89412.78;;;5.10;58.95
10366;BME280;5229;41.820;23.490;2023-02-04T07:56:58;89424.09;;;5.36;58.16
10366;BME280;5229;41.820;23.490;2023-02-04T07:59:24;89414.38;;;5.60;57.90
10366;BME280;5229;41.820;23.490;2023-02-04T08:01:51;89413.69;;;5.81;57.47
10366;BME280;5229;41.820;23.490;2023-02-04T08:04:18;89415.41;;;6.08;55.73
10366;BME280;5229;41.820;23.490;2023-02-04T08:06:44;89408.78;;;6.29;54.79
10366;BME280;5229;41.820;23.490;2023-02-04T08:09:13;89415.88;;;6.46;54.75
10366;BME280;5229;41.820;23.490;2023-02-04T08:11:39;89405.22;;;6.61;54.06
10366;BME280;5229;41.820;23.490;2023-02-04T08:14:06;89410.13;;;6.71;54.44
10366;BME280;5229;41.820;23.490;2023-02-04T08:16:33;89415.97;;;6.85;53.65
10366;BME280;5229;41.820;23.490;2023-02-04T08:19:00;89415.44;;;7.05;53.33
10366;BME280;5229;41.820;23.490;2023-02-04T08:21:26;89409.00;;;7.24;51.86
10366;BME280;5229;41.820;23.490;2023-02-04T08:23:53;89421.19;;;7.32;51.95
10366;BME280;5229;41.820;23.490;2023-02-04T08:26:21;89411.94;;;7.40;51.09
10366;BME280;5229;41.820;23.490;2023-02-04T08:28:48;89416.50;;;7.43;51.89
10366;BME280;5229;41.820;23.490;2023-02-04T08:31:15;89417.16;;;7.57;50.86
10366;BME280;5229;41.820;23.490;2023-02-04T08:33:42;89416.59;;;7.77;50.86
10366;BME280;5229;41.820;23.490;2023-02-04T08:36:09;89412.84;;;8.00;50.60
10366;BME280;5229;41.820;23.490;2023-02-04T08:38:36;89420.00;;;8.20;49.73
10366;BME280;5229;41.820;23.490;2023-02-04T08:41:03;89421.84;;;8.28;49.74
10366;BME280;5229;41.820;23.490;2023-02-04T08:43:31;89412.00;;;8.38;50.12
10366;BME280;5229;41.820;23.490;2023-02-04T08:45:57;89408.63;;;8.55;49.55
10366;BME280;5229;41.820;23.490;2023-02-04T08:48:24;89402.97;;;8.70;49.06
10366;BME280;5229;41.820;23.490;2023-02-04T08:50:51;89405.25;;;8.88;48.77
10366;BME280;5229;41.820;23.490;2023-02-04T08:53:18;89399.25;;;9.05;48.28
10366;BME280;5229;41.820;23.490;2023-02-04T08:55:44;89389.59;;;9.23;47.89
10366;BME280;5229;41.820;23.490;2023-02-04T08:58:11;89402.00;;;9.46;47.50
10366;BME280;5229;41.820;23.490;2023-02-04T09:00:39;89400.88;;;9.64;46.81
10366;BME280;5229;41.820;23.490;2023-02-04T09:03:06;89393.03;;;9.73;46.59
10366;BME280;5229;41.820;23.490;2023-02-04T09:05:33;89391.84;;;9.70;45.93
10366;BME280;5229;41.820;23.490;2023-02-04T09:08:00;89400.72;;;9.61;46.07
10366;BME280;5229;41.820;23.490;2023-02-04T09:10:26;89403.53;;;9.47;45.59
10366;BME280;5229;41.820;23.490;2023-02-04T09:12:53;89413.16;;;9.38;45.22
10366;BME280;5229;41.820;23.490;2023-02-04T09:15:21;89405.91;;;9.23;45.13
10366;BME280;5229;41.820;23.490;2023-02-04T09:17:49;89405.03;;;9.02;45.17
10366;BME280;5229;41.820;23.490;2023-02-04T09:20:18;89403.84;;;8.91;45.32
10366;BME280;5229;41.820;23.490;2023-02-04T09:22:45;89412.09;;;8.76;44.57
10366;BME280;5229;41.820;23.490;2023-02-04T09:25:12;89404.97;;;8.56;44.09
10366;BME280;5229;41.820;23.490;2023-02-04T09:27:39;89408.63;;;8.38;44.25
10366;BME280;5229;41.820;23.490;2023-02-04T09:30:06;89414.09;;;8.28;43.45
10366;BME280;5229;41.820;23.490;2023-02-04T09:32:33;89419.72;;;8.21;43.57
10366;BME280;5229;41.820;23.490;2023-02-04T09:35:02;89409.38;;;8.13;44.13
10366;BME280;5229;41.820;23.490;2023-02-04T09:37:28;89399.78;;;8.05;43.56
10366;BME280;5229;41.820;23.490;2023-02-04T09:39:55;89402.81;;;8.07;44.10
10366;BME280;5229;41.820;23.490;2023-02-04T09:42:24;89398.25;;;8.12;43.74
10366;BME280;5229;41.820;23.490;2023-02-04T09:44:51;89391.00;;;8.14;43.22
10366;BME280;5229;41.820;23.490;2023-02-04T09:47:21;89394.31;;;8.15;43.50
10366;BME280;5229;41.820;23.490;2023-02-04T09:49:49;89384.78;;;8.24;43.92
10366;BME280;5229;41.820;23.490;2023-02-04T09:52:17;89375.97;;;8.25;43.03
10366;BME280;5229;41.820;23.490;2023-02-04T09:54:45;89375.97;;;8.25;42.92
10366;BME280;5229;41.820;23.490;2023-02-04T09:57:14;89362.00;;;8.26;43.03
10366;BME280;5229;41.820;23.490;2023-02-04T09:59:42;89365.94;;;8.32;42.69
10366;BME280;5229;41.820;23.490;2023-02-04T10:02:20;89366.72;;;8.32;42.57
10366;BME280;5229;41.820;23.490;2023-02-04T10:04:49;89361.69;;;8.36;42.47
10366;BME280;5229;41.820;23.490;2023-02-04T10:07:19;89341.63;;;8.33;43.09
10366;BME280;5229;41.820;23.490;2023-02-04T10:09:50;89351.03;;;8.29;43.03
10366;BME280;5229;41.820;23.490;2023-02-04T10:12:17;89349.22;;;8.21;42.90
10366;BME280;5229;41.820;23.490;2023-02-04T10:14:44;89348.47;;;8.12;42.47
10366;BME280;5229;41.820;23.490;2023-02-04T10:17:13;89354.97;;;8.01;42.43
10366;BME280;5229;41.820;23.490;2023-02-04T10:19:43;89350.72;;;7.88;42.74
10366;BME280;5229;41.820;23.490;2023-02-04T10:22:15;89338.59;;;7.71;43.37
10366;BME280;5229;41.820;23.490;2023-02-04T10:24:44;89334.31;;;7.58;42.47
10366;BME280;5229;41.820;23.490;2023-02-04T10:27:12;89331.72;;;7.50;42.45
10366;BME280;5229;41.820;23.490;2023-02-04T10:29:41;89328.03;;;7.42;43.21
10366;BME280;5229;41.820;23.490;2023-02-04T10:32:24;89330.47;;;7.39;43.48
10366;BME280;5229;41.820;23.490;2023-02-04T10:34:56;89336.09;;;7.41;43.04
10366;BME280;5229;41.820;23.490;2023-02-04T10:37:23;89336.22;;;7.36;43.12
10366;BME280;5229;41.820;23.490;2023-02-04T10:39:51;89331.66;;;7.24;44.42
10366;BME280;5229;41.820;23.490;2023-02-04T10:42:23;89330.56;;;7.08;43.84
10366;BME280;5229;41.820;23.490;2023-02-04T10:44:50;89329.72;;;6.91;45.29
10366;BME280;5229;41.820;23.490;2023-02-04T10:47:19;89321.19;;;6.73;46.18
10366;BME280;5229;41.820;23.490;2023-02-04T10:49:54;89314.63;;;6.67;46.45
10366;BME280;5229;41.820;23.490;2023-02-04T10:52:25;89311.94;;;6.72;45.90
10366;BME280;5229;41.820;23.490;2023-02-04T10:54:56;89315.28;;;6.81;46.03
10366;BME280;5229;41.820;23.490;2023-02-04T10:57:25;89305.34;;;6.97;45.52
10366;BME280;5229;41.820;23.490;2023-02-04T10:59:56;89301.13;;;7.01;45.93
10366;BME280;5229;41.820;23.490;2023-02-04T11:02:41;89294.31;;;7.05;46.04
10366;BME280;5229;41.820;23.490;2023-02-04T11:05:14;89294.59;;;7.03;47.63
10366;BME280;5229;41.820;23.490;2023-02-04T11:07:42;89295.97;;;7.01;47.86
10366;BME280;5229;41.820;23.490;2023-02-04T11:10:14;89290.22;;;7.04;48.07
10366;BME280;5229;41.820;23.490;2023-02-04T11:12:42;89272.47;;;7.02;48.39
10366;BME280;5229;41.820;23.490;2023-02-04T11:15:39;89275.22;;;7.14;48.70
10366;BME280;5229;41.820;23.490;2023-02-04T11:18:07;89251.16;;;7.36;48.00
10366;BME280;5229;41.820;23.490;2023-02-04T11:20:35;89248.72;;;7.48;47.49
10366;BME280;5229;41.820;23.490;2023-02-04T11:23:32;89254.94;;;7.55;46.97
10366;BME280;5229;41.820;23.490;2023-02-04T11:26:07;89234.47;;;7.59;47.46
10366;BME280;5229;41.820;23.490;2023-02-04T11:29:06;89223.53;;;7.53;46.38
10366;BME280;5229;41.820;23.490;2023-02-04T11:31:56;89240.69;;;7.58;47.00
10366;BME280;5229;41.820;23.490;2023-02-04T11:34:29;89239.47;;;7.72;45.94
10366;BME280;5229;41.820;23.490;2023-02-04T11:37:12;89232.34;;;7.78;45.70
10366;BME280;5229;41.820;23.490;2023-02-04T11:39:42;89227.59;;;7.88;45.72
10366;BME280;5229;41.820;23.490;2023-02-04T11:42:17;89213.78;;;7.93;45.84
10366;BME280;5229;41.820;23.490;2023-02-04T11:44:49;89219.25;;;8.00;45.61
10366;BME280;5229;41.820;23.490;2023-02-04T11:47:17;89204.81;;;7.99;44.83
10366;BME280;5229;41.820;23.490;2023-02-04T11:49:45;89219.84;;;7.97;44.63
10366;BME280;5229;41.820;23.490;2023-02-04T11:52:18;89216.66;;;7.91;44.28
10366;BME280;5229;41.820;23.490;2023-02-04T11:54:52;89204.22;;;7.93;43.95
10366;BME280;5229;41.820;23.490;2023-02-04T11:57:21;89197.97;;;8.03;44.32
10366;BME280;5229;41.820;23.490;2023-02-04T11:59:48;89212.84;;;8.06;43.78
10366;BME280;5229;41.820;23.490;2023-02-04T12:02:16;89205.72;;;8.03;44.09
10366;BME280;5229;41.820;23.490;2023-02-04T12:04:54;89193.88;;;8.02;44.17
10366;BME280;5229;41.820;23.490;2023-02-04T12:07:24;89193.28;;;8.05;44.33
10366;BME280;5229;41.820;23.490;2023-02-04T12:09:51;89198.25;;;8.10;44.15
10366;BME280;5229;41.820;23.490;2023-02-04T12:12:29;89191.75;;;8.04;43.46
10366;BME280;5229;41.820;23.490;2023-02-04T12:15:01;89193.72;;;8.07;43.20
10366;BME280;5229;41.820;23.490;2023-02-04T12:17:28;89182.31;;;8.08;43.96
10366;BME280;5229;41.820;23.490;2023-02-04T12:19:55;89185.38;;;8.01;43.27
10366;BME280;5229;41.820;23.490;2023-02-04T12:22:22;89193.72;;;7.98;43.21
10366;BME280;5229;41.820;23.490;2023-02-04T12:24:48;89189.03;;;8.00;43.41
10366;BME280;5229;41.820;23.490;2023-02-04T12:27:16;89194.47;;;8.07;42.82
10366;BME280;5229;41.820;23.490;2023-02-04T12:29:45;89189.28;;;8.16;42.22
10366;BME280;5229;41.820;23.490;2023-02-04T12:32:12;89201.59;;;8.19;42.79
10366;BME280;5229;41.820;23.490;2023-02-04T12:34:38;89209.34;;;8.19;42.95
10366;BME280;5229;41.820;23.490;2023-02-04T12:37:05;89203.88;;;8.12;43.24
10366;BME280;5229;41.820;23.490;2023-02-04T12:39:32;89191.63;;;7.92;44.79
10366;BME280;5229;41.820;23.490;2023-02-04T12:41:58;89186.38;;;7.63;46.14
10366;BME280;5229;41.820;23.490;2023-02-04T12:44:25;89183.63;;;7.42;46.24
10366;BME280;5229;41.820;23.490;2023-02-04T12:46:53;89178.66;;;7.29;47.00
10366;BME280;5229;41.820;23.490;2023-02-04T12:49:20;89185.59;;;7.20;46.31
10366;BME280;5229;41.820;23.490;2023-02-04T12:51:49;89187.88;;;7.13;45.76
10366;BME280;5229;41.820;23.490;2023-02-04T12:54:16;89175.16;;;7.08;44.67
10366;BME280;5229;41.820;23.490;2023-02-04T12:56:43;89184.84;;;7.11;44.96
10366;BME280;5229;41.820;23.490;2023-02-04T12:59:09;89175.75;;;7.13;44.21
10366;BME280;5229;41.820;23.490;2023-02-04T13:01:36;89184.69;;;7.16;43.92
10366;BME280;5229;41.820;23.490;2023-02-04T13:04:04;89198.50;;;7.11;44.07
10366;BME280;5229;41.820;23.490;2023-02-04T13:06:31;89199.13;;;7.08;43.41
10366;BME280;5229;41.820;23.490;2023-02-04T13:08:58;89190.19;;;7.06;42.85
10366;BME280;5229;41.820;23.490;2023-02-04T13:11:25;89207.75;;;7.04;42.89
10366;BME280;5229;41.820;23.490;2023-02-04T13:13:51;89205.75;;;7.01;43.75